sensor_id;sensor_type;location;lat;lon;timestamp;P1;durP1;ratioP1;P2;durP2;ratioP2
14235;SDS011;7202;50.718;7.072;2023-02-18T00:01:44;2.10;;;1.73;;
14235;SDS011;7202;50.718;7.072;2023-02-18T00:04:12;1.92;;;1.73;;
14235;SDS011;7202;50.718;7.072;2023-02-18T00:06:41;2.70;;;2.13;;
14235;SDS011;7202;50.718;7.072;2023-02-18T00:09:10;3.15;;;1.80;;
14235;SDS011;7202;50.718;7.072;2023-02-18T00:11:38;2.67;;;1.85;;
14235;SDS011;7202;50.718;7.072;2023-02-18T00:14:10;2.25;;;1.85;;
14235;SDS011;7202;50.718;7.072;2023-02-18T00:16:40;1.60;;;1.50;;
14235;SDS011;7202;50.718;7.072;2023-02-18T00:19:11;3.15;;;1.83;;
14235;SDS011;7202;50.718;7.072;2023-02-18T00:21:44;2.08;;;1.70;;
14235;SDS011;7202;50.718;7.072;2023-02-18T00:24:14;1.92;;;1.70;;
14235;SDS011;7202;50.718;7.072;2023-02-18T00:26:43;2.28;;;2.00;;
14235;SDS011;7202;50.718;7.072;2023-02-18T00:29:12;1.63;;;1.52;;
14235;SDS011;7202;50.718;7.072;2023-02-18T00:31:41;2.13;;;1.88;;
14235;SDS011;7202;50.718;7.072;2023-02-18T00:34:12;3.03;;;1.70;;
14235;SDS011;7202;50.718;7.072;2023-02-18T00:36:41;3.53;;;1.70;;
14235;SDS011;7202;50.718;7.072;2023-02-18T00:39:10;2.78;;;1.85;;
14235;SDS011;7202;50.718;7.072;2023-02-18T00:41:40;1.60;;;1.40;;
14235;SDS011;7202;50.718;7.072;2023-02-18T00:44:09;2.30;;;1.85;;
14235;SDS011;7202;50.718;7.072;2023-02-18T00:46:38;4.60;;;1.70;;
14235;SDS011;7202;50.718;7.072;2023-02-18T00:49:08;2.70;;;1.98;;
14235;SDS011;7202;50.718;7.072;2023-02-18T00:51:38;2.83;;;1.63;;
14235;SDS011;7202;50.718;7.072;2023-02-18T00:54:07;2.25;;;2.00;;
14235;SDS011;7202;50.718;7.072;2023-02-18T00:56:36;2.00;;;1.70;;
14235;SDS011;7202;50.718;7.072;2023-02-18T00:59:04;1.95;;;1.60;;
14235;SDS011;7202;50.718;7.072;2023-02-18T01:01:33;1.55;;;1.45;;
14235;SDS011;7202;50.718;7.072;2023-02-18T01:04:01;1.50;;;1.40;;
14235;SDS011;7202;50.718;7.072;2023-02-18T01:06:30;2.35;;;1.90;;
14235;SDS011;7202;50.718;7.072;2023-02-18T01:09:03;1.70;;;1.50;;
14235;SDS011;7202;50.718;7.072;2023-02-18T01:11:32;4.00;;;1.90;;
14235;SDS011;7202;50.718;7.072;2023-02-18T01:14:01;2.33;;;1.50;;
14235;SDS011;7202;50.718;7.072;2023-02-18T01:16:30;1.30;;;1.20;;
14235;SDS011;7202;50.718;7.072;2023-02-18T01:18:59;1.58;;;1.10;;
14235;SDS011;7202;50.718;7.072;2023-02-18T01:21:27;1.65;;;1.42;;
14235;SDS011;7202;50.718;7.072;2023-02-18T01:23:56;3.05;;;1.30;;
14235;SDS011;7202;50.718;7.072;2023-02-18T01:26:26;3.00;;;1.48;;
14235;SDS011;7202;50.718;7.072;2023-02-18T01:28:55;1.70;;;1.50;;
14235;SDS011;7202;50.718;7.072;2023-02-18T01:31:23;1.48;;;1.17;;
14235;SDS011;7202;50.718;7.072;2023-02-18T01:33:52;1.85;;;1.30;;
14235;SDS011;7202;50.718;7.072;2023-02-18T01:36:21;1.48;;;1.38;;
14235;SDS011;7202;50.718;7.072;2023-02-18T01:38:49;1.70;;;1.25;;
14235;SDS011;7202;50.718;7.072;2023-02-18T01:41:19;1.33;;;1.10;;
14235;SDS011;7202;50.718;7.072;2023-02-18T01:46:53;1.38;;;1.25;;
14235;SDS011;7202;50.718;7.072;2023-02-18T01:49:24;2.88;;;1.30;;
14235;SDS011;7202;50.718;7.072;2023-02-18T01:51:56;2.10;;;1.20;;
14235;SDS011;7202;50.718;7.072;2023-02-18T01:54:30;1.30;;;1.02;;
14235;SDS011;7202;50.718;7.072;2023-02-18T01:57:01;1.73;;;1.20;;
14235;SDS011;7202;50.718;7.072;2023-02-18T01:59:33;2.13;;;1.33;;
14235;SDS011;7202;50.718;7.072;2023-02-18T02:02:08;1.38;;;1.00;;
14235;SDS011;7202;50.718;7.072;2023-02-18T02:04:40;1.10;;;1.00;;
14235;SDS011;7202;50.718;7.072;2023-02-18T02:07:09;1.08;;;0.93;;
14235;SDS011;7202;50.718;7.072;2023-02-18T02:09:38;1.40;;;1.10;;
14235;SDS011;7202;50.718;7.072;2023-02-18T02:12:23;2.63;;;1.00;;
14235;SDS011;7202;50.718;7.072;2023-02-18T02:15:22;1.52;;;1.30;;
14235;SDS011;7202;50.718;7.072;2023-02-18T02:18:11;3.50;;;1.30;;
14235;SDS011;7202;50.718;7.072;2023-02-18T02:24:11;1.10;;;1.00;;
14235;SDS011;7202;50.718;7.072;2023-02-18T02:27:09;1.08;;;0.93;;
14235;SDS011;7202;50.718;7.072;2023-02-18T02:33:01;1.38;;;1.25;;
14235;SDS011;7202;50.718;7.072;2023-02-18T02:35:45;1.08;;;0.98;;
14235;SDS011;7202;50.718;7.072;2023-02-18T02:38:21;1.20;;;1.00;;
14235;SDS011;7202;50.718;7.072;2023-02-18T02:40:58;1.85;;;1.10;;
14235;SDS011;7202;50.718;7.072;2023-02-18T02:43:40;0.80;;;0.77;;
14235;SDS011;7202;50.718;7.072;2023-02-18T02:46:17;1.75;;;0.80;;
14235;SDS011;7202;50.718;7.072;2023-02-18T02:48:50;1.35;;;1.15;;
14235;SDS011;7202;50.718;7.072;2023-02-18T02:51:29;1.08;;;0.98;;
14235;SDS011;7202;50.718;7.072;2023-02-18T02:54:10;1.40;;;1.00;;
14235;SDS011;7202;50.718;7.072;2023-02-18T02:56:41;1.33;;;1.00;;
14235;SDS011;7202;50.718;7.072;2023-02-18T02:59:12;1.25;;;0.93;;
14235;SDS011;7202;50.718;7.072;2023-02-18T03:01:47;1.13;;;0.73;;
14235;SDS011;7202;50.718;7.072;2023-02-18T03:04:35;0.77;;;0.73;;
14235;SDS011;7202;50.718;7.072;2023-02-18T03:07:24;2.65;;;1.08;;
14235;SDS011;7202;50.718;7.072;2023-02-18T03:10:16;0.63;;;0.55;;
14235;SDS011;7202;50.718;7.072;2023-02-18T03:12:56;2.83;;;0.73;;
14235;SDS011;7202;50.718;7.072;2023-02-18T03:15:37;1.02;;;0.50;;
14235;SDS011;7202;50.718;7.072;2023-02-18T03:18:13;1.63;;;0.52;;
14235;SDS011;7202;50.718;7.072;2023-02-18T03:20:50;0.60;;;0.50;;
14235;SDS011;7202;50.718;7.072;2023-02-18T03:23:24;0.55;;;0.50;;
14235;SDS011;7202;50.718;7.072;2023-02-18T03:25:56;0.90;;;0.40;;
14235;SDS011;7202;50.718;7.072;2023-02-18T03:28:28;0.73;;;0.30;;
14235;SDS011;7202;50.718;7.072;2023-02-18T03:31:04;0.28;;;0.28;;
14235;SDS011;7202;50.718;7.072;2023-02-18T03:33:37;0.20;;;0.20;;
14235;SDS011;7202;50.718;7.072;2023-02-18T03:36:09;0.43;;;0.30;;
14235;SDS011;7202;50.718;7.072;2023-02-18T03:38:41;0.60;;;0.38;;
14235;SDS011;7202;50.718;7.072;2023-02-18T03:41:14;0.20;;;0.20;;
14235;SDS011;7202;50.718;7.072;2023-02-18T03:43:47;0.40;;;0.20;;
14235;SDS011;7202;50.718;7.072;2023-02-18T03:46:17;0.10;;;0.10;;
14235;SDS011;7202;50.718;7.072;2023-02-18T03:48:45;0.47;;;0.20;;
14235;SDS011;7202;50.718;7.072;2023-02-18T03:51:14;0.17;;;0.10;;
14235;SDS011;7202;50.718;7.072;2023-02-18T03:53:47;0.25;;;0.20;;
14235;SDS011;7202;50.718;7.072;2023-02-18T03:56:16;0.30;;;0.10;;
14235;SDS011;7202;50.718;7.072;2023-02-18T03:58:44;0.05;;;0.05;;
14235;SDS011;7202;50.718;7.072;2023-02-18T04:01:13;0.10;;;0.10;;
14235;SDS011;7202;50.718;7.072;2023-02-18T04:03:42;0.85;;;0.10;;
14235;SDS011;7202;50.718;7.072;2023-02-18T04:06:11;0.10;;;0.10;;
14235;SDS011;7202;50.718;7.072;2023-02-18T04:08:39;0.15;;;0.10;;
14235;SDS011;7202;50.718;7.072;2023-02-18T04:11:09;0.60;;;0.10;;
14235;SDS011;7202;50.718;7.072;2023-02-18T04:13:38;0.00;;;0.00;;
14235;SDS011;7202;50.718;7.072;2023-02-18T04:16:06;0.05;;;0.00;;
14235;SDS011;7202;50.718;7.072;2023-02-18T04:18:35;0.00;;;0.00;;
14235;SDS011;7202;50.718;7.072;2023-02-18T04:21:04;0.90;;;0.05;;
14235;SDS011;7202;50.718;7.072;2023-02-18T04:23:33;0.10;;;0.10;;
14235;SDS011;7202;50.718;7.072;2023-02-18T04:26:01;0.00;;;0.00;;
14235;SDS011;7202;50.718;7.072;2023-02-18T04:28:31;0.00;;;0.00;;
14235;SDS011;7202;50.718;7.072;2023-02-18T04:31:00;0.38;;;0.00;;
14235;SDS011;7202;50.718;7.072;2023-02-18T04:33:29;0.00;;;0.00;;
14235;SDS011;7202;50.718;7.072;2023-02-18T04:35:58;0.10;;;0.10;;
14235;SDS011;7202;50.718;7.072;2023-02-18T04:38:26;0.10;;;0.10;;
14235;SDS011;7202;50.718;7.072;2023-02-18T04:40:55;0.00;;;0.00;;
14235;SDS011;7202;50.718;7.072;2023-02-18T04:43:23;0.00;;;0.00;;
14235;SDS011;7202;50.718;7.072;2023-02-18T04:45:53;0.00;;;0.00;;
14235;SDS011;7202;50.718;7.072;2023-02-18T04:48:22;0.10;;;0.10;;
14235;SDS011;7202;50.718;7.072;2023-02-18T04:50:50;0.10;;;0.10;;
14235;SDS011;7202;50.718;7.072;2023-02-18T04:53:19;0.20;;;0.20;;
14235;SDS011;7202;50.718;7.072;2023-02-18T04:55:48;0.10;;;0.10;;
14235;SDS011;7202;50.718;7.072;2023-02-18T04:58:17;3.35;;;0.15;;
14235;SDS011;7202;50.718;7.072;2023-02-18T05:00:46;0.08;;;0.08;;
14235;SDS011;7202;50.718;7.072;2023-02-18T05:03:16;0.68;;;0.10;;
14235;SDS011;7202;50.718;7.072;2023-02-18T05:05:45;0.20;;;0.15;;
14235;SDS011;7202;50.718;7.072;2023-02-18T05:08:14;0.30;;;0.30;;
14235;SDS011;7202;50.718;7.072;2023-02-18T05:10:42;0.10;;;0.10;;
14235;SDS011;7202;50.718;7.072;2023-02-18T05:13:11;0.17;;;0.10;;
14235;SDS011;7202;50.718;7.072;2023-02-18T05:15:40;0.50;;;0.10;;
14235;SDS011;7202;50.718;7.072;2023-02-18T05:18:09;0.28;;;0.20;;
14235;SDS011;7202;50.718;7.072;2023-02-18T05:20:39;0.10;;;0.10;;
14235;SDS011;7202;50.718;7.072;2023-02-18T05:23:07;0.10;;;0.10;;
14235;SDS011;7202;50.718;7.072;2023-02-18T05:25:36;0.20;;;0.15;;
14235;SDS011;7202;50.718;7.072;2023-02-18T05:28:04;0.63;;;0.20;;
14235;SDS011;7202;50.718;7.072;2023-02-18T05:30:33;0.00;;;0.00;;
14235;SDS011;7202;50.718;7.072;2023-02-18T05:33:02;0.20;;;0.20;;
14235;SDS011;7202;50.718;7.072;2023-02-18T05:35:30;0.43;;;0.20;;
14235;SDS011;7202;50.718;7.072;2023-02-18T05:38:00;0.45;;;0.15;;
14235;SDS011;7202;50.718;7.072;2023-02-18T05:40:29;0.15;;;0.15;;
14235;SDS011;7202;50.718;7.072;2023-02-18T05:42:58;0.10;;;0.10;;
14235;SDS011;7202;50.718;7.072;2023-02-18T05:45:26;0.45;;;0.10;;
14235;SDS011;7202;50.718;7.072;2023-02-18T05:47:55;0.10;;;0.00;;
14235;SDS011;7202;50.718;7.072;2023-02-18T05:50:24;0.10;;;0.05;;
14235;SDS011;7202;50.718;7.072;2023-02-18T05:52:52;0.45;;;0.10;;
14235;SDS011;7202;50.718;7.072;2023-02-18T05:55:22;0.05;;;0.05;;
14235;SDS011;7202;50.718;7.072;2023-02-18T05:57:51;0.20;;;0.05;;
14235;SDS011;7202;50.718;7.072;2023-02-18T06:00:20;0.15;;;0.10;;
14235;SDS011;7202;50.718;7.072;2023-02-18T06:02:49;0.10;;;0.10;;
14235;SDS011;7202;50.718;7.072;2023-02-18T06:05:17;0.32;;;0.10;;
14235;SDS011;7202;50.718;7.072;2023-02-18T06:07:46;0.00;;;0.00;;
14235;SDS011;7202;50.718;7.072;2023-02-18T06:10:15;0.00;;;0.00;;
14235;SDS011;7202;50.718;7.072;2023-02-18T06:12:45;0.08;;;0.03;;
14235;SDS011;7202;50.718;7.072;2023-02-18T06:15:14;0.35;;;0.05;;
14235;SDS011;7202;50.718;7.072;2023-02-18T06:17:42;0.10;;;0.10;;
14235;SDS011;7202;50.718;7.072;2023-02-18T06:20:11;0.00;;;0.00;;
14235;SDS011;7202;50.718;7.072;2023-02-18T06:22:40;0.00;;;0.00;;
14235;SDS011;7202;50.718;7.072;2023-02-18T06:25:08;0.00;;;0.00;;
14235;SDS011;7202;50.718;7.072;2023-02-18T06:27:37;0.10;;;0.10;;
14235;SDS011;7202;50.718;7.072;2023-02-18T06:30:07;0.10;;;0.10;;
14235;SDS011;7202;50.718;7.072;2023-02-18T06:32:37;0.17;;;0.10;;
14235;SDS011;7202;50.718;7.072;2023-02-18T06:35:05;0.13;;;0.10;;
14235;SDS011;7202;50.718;7.072;2023-02-18T06:37:34;0.20;;;0.15;;
14235;SDS011;7202;50.718;7.072;2023-02-18T06:40:03;0.10;;;0.10;;
14235;SDS011;7202;50.718;7.072;2023-02-18T06:42:33;0.35;;;0.10;;
14235;SDS011;7202;50.718;7.072;2023-02-18T06:45:01;0.88;;;0.20;;
14235;SDS011;7202;50.718;7.072;2023-02-18T06:47:33;0.00;;;0.00;;
14235;SDS011;7202;50.718;7.072;2023-02-18T06:50:02;0.20;;;0.10;;
14235;SDS011;7202;50.718;7.072;2023-02-18T06:52:31;0.50;;;0.10;;
14235;SDS011;7202;50.718;7.072;2023-02-18T06:55:00;0.10;;;0.10;;
14235;SDS011;7202;50.718;7.072;2023-02-18T06:57:29;0.30;;;0.05;;
14235;SDS011;7202;50.718;7.072;2023-02-18T06:59:57;0.40;;;0.10;;
14235;SDS011;7202;50.718;7.072;2023-02-18T07:02:27;0.10;;;0.10;;
14235;SDS011;7202;50.718;7.072;2023-02-18T07:04:57;0.00;;;0.00;;
14235;SDS011;7202;50.718;7.072;2023-02-18T07:07:26;0.00;;;0.00;;
14235;SDS011;7202;50.718;7.072;2023-02-18T07:09:54;0.10;;;0.10;;
14235;SDS011;7202;50.718;7.072;2023-02-18T07:12:23;0.10;;;0.10;;
14235;SDS011;7202;50.718;7.072;2023-02-18T07:14:52;0.50;;;0.30;;
14235;SDS011;7202;50.718;7.072;2023-02-18T07:17:20;0.30;;;0.10;;
14235;SDS011;7202;50.718;7.072;2023-02-18T07:19:49;0.13;;;0.10;;
14235;SDS011;7202;50.718;7.072;2023-02-18T07:22:19;0.10;;;0.10;;
14235;SDS011;7202;50.718;7.072;2023-02-18T07:24:49;0.10;;;0.10;;
14235;SDS011;7202;50.718;7.072;2023-02-18T07:27:19;0.20;;;0.20;;
14235;SDS011;7202;50.718;7.072;2023-02-18T07:29:48;0.17;;;0.15;;
14235;SDS011;7202;50.718;7.072;2023-02-18T07:32:17;0.17;;;0.10;;
14235;SDS011;7202;50.718;7.072;2023-02-18T07:34:46;0.10;;;0.10;;
14235;SDS011;7202;50.718;7.072;2023-02-18T07:37:15;0.75;;;0.10;;
14235;SDS011;7202;50.718;7.072;2023-02-18T07:39:45;0.03;;;0.03;;
14235;SDS011;7202;50.718;7.072;2023-02-18T07:42:14;0.28;;;0.10;;
14235;SDS011;7202;50.718;7.072;2023-02-18T07:44:43;0.15;;;0.13;;
14235;SDS011;7202;50.718;7.072;2023-02-18T07:47:12;0.10;;;0.10;;
14235;SDS011;7202;50.718;7.072;2023-02-18T07:49:43;0.28;;;0.17;;
14235;SDS011;7202;50.718;7.072;2023-02-18T07:52:11;1.20;;;0.20;;
14235;SDS011;7202;50.718;7.072;2023-02-18T07:54:41;0.20;;;0.17;;
14235;SDS011;7202;50.718;7.072;2023-02-18T07:57:11;0.20;;;0.20;;
14235;SDS011;7202;50.718;7.072;2023-02-18T07:59:40;0.15;;;0.13;;
14235;SDS011;7202;50.718;7.072;2023-02-18T08:02:09;0.10;;;0.10;;
14235;SDS011;7202;50.718;7.072;2023-02-18T08:04:44;0.20;;;0.13;;
14235;SDS011;7202;50.718;7.072;2023-02-18T08:07:14;0.20;;;0.17;;
14235;SDS011;7202;50.718;7.072;2023-02-18T08:09:45;0.40;;;0.20;;
14235;SDS011;7202;50.718;7.072;2023-02-18T08:12:16;0.20;;;0.20;;
14235;SDS011;7202;50.718;7.072;2023-02-18T08:14:45;0.10;;;0.10;;
14235;SDS011;7202;50.718;7.072;2023-02-18T08:17:13;0.40;;;0.30;;
14235;SDS011;7202;50.718;7.072;2023-02-18T08:19:43;0.10;;;0.10;;
14235;SDS011;7202;50.718;7.072;2023-02-18T08:22:12;0.00;;;0.00;;
14235;SDS011;7202;50.718;7.072;2023-02-18T08:24:40;0.10;;;0.10;;
14235;SDS011;7202;50.718;7.072;2023-02-18T08:27:09;0.17;;;0.17;;
14235;SDS011;7202;50.718;7.072;2023-02-18T08:29:40;0.60;;;0.25;;
14235;SDS011;7202;50.718;7.072;2023-02-18T08:32:09;0.20;;;0.20;;
14235;SDS011;7202;50.718;7.072;2023-02-18T08:34:37;0.45;;;0.20;;
14235;SDS011;7202;50.718;7.072;2023-02-18T08:37:06;1.38;;;0.40;;
14235;SDS011;7202;50.718;7.072;2023-02-18T08:39:35;0.10;;;0.10;;
14235;SDS011;7202;50.718;7.072;2023-02-18T08:42:05;0.65;;;0.30;;
14235;SDS011;7202;50.718;7.072;2023-02-18T08:44:34;0.25;;;0.25;;
14235;SDS011;7202;50.718;7.072;2023-02-18T08:47:04;0.30;;;0.30;;
14235;SDS011;7202;50.718;7.072;2023-02-18T08:49:53;0.50;;;0.40;;
14235;SDS011;7202;50.718;7.072;2023-02-18T08:52:21;0.30;;;0.30;;
14235;SDS011;7202;50.718;7.072;2023-02-18T08:54:50;1.40;;;0.65;;
14235;SDS011;7202;50.718;7.072;2023-02-18T08:57:19;0.55;;;0.47;;
14235;SDS011;7202;50.718;7.072;2023-02-18T08:59:47;2.47;;;0.73;;
14235;SDS011;7202;50.718;7.072;2023-02-18T09:02:17;1.33;;;1.00;;
14235;SDS011;7202;50.718;7.072;2023-02-18T09:04:48;2.15;;;0.85;;
14235;SDS011;7202;50.718;7.072;2023-02-18T09:07:17;1.40;;;1.13;;
14235;SDS011;7202;50.718;7.072;2023-02-18T09:09:45;1.33;;;0.90;;
14235;SDS011;7202;50.718;7.072;2023-02-18T09:12:14;2.13;;;0.88;;
14235;SDS011;7202;50.718;7.072;2023-02-18T09:14:43;1.35;;;0.90;;
14235;SDS011;7202;50.718;7.072;2023-02-18T09:17:14;5.15;;;0.95;;
14235;SDS011;7202;50.718;7.072;2023-02-18T09:19:44;1.00;;;0.80;;
14235;SDS011;7202;50.718;7.072;2023-02-18T09:22:13;1.35;;;0.93;;
14235;SDS011;7202;50.718;7.072;2023-02-18T09:24:42;2.20;;;0.93;;
14235;SDS011;7202;50.718;7.072;2023-02-18T09:27:10;3.63;;;0.88;;
14235;SDS011;7202;50.718;7.072;2023-02-18T09:29:39;3.58;;;0.80;;
14235;SDS011;7202;50.718;7.072;2023-02-18T09:32:08;1.35;;;0.63;;
14235;SDS011;7202;50.718;7.072;2023-02-18T09:34:47;4.18;;;0.90;;
14235;SDS011;7202;50.718;7.072;2023-02-18T09:37:15;2.67;;;0.95;;
14235;SDS011;7202;50.718;7.072;2023-02-18T09:39:44;6.60;;;1.50;;
14235;SDS011;7202;50.718;7.072;2023-02-18T09:42:15;2.95;;;1.15;;
14235;SDS011;7202;50.718;7.072;2023-02-18T09:44:48;4.35;;;1.05;;
14235;SDS011;7202;50.718;7.072;2023-02-18T09:47:20;2.50;;;1.00;;
14235;SDS011;7202;50.718;7.072;2023-02-18T09:49:55;5.40;;;1.50;;
14235;SDS011;7202;50.718;7.072;2023-02-18T09:52:27;3.17;;;1.10;;
14235;SDS011;7202;50.718;7.072;2023-02-18T09:54:57;4.40;;;1.50;;
14235;SDS011;7202;50.718;7.072;2023-02-18T09:57:27;3.30;;;1.20;;
14235;SDS011;7202;50.718;7.072;2023-02-18T10:00:03;3.97;;;1.48;;
14235;SDS011;7202;50.718;7.072;2023-02-18T10:02:37;2.92;;;1.27;;
14235;SDS011;7202;50.718;7.072;2023-02-18T10:05:11;4.18;;;1.75;;
14235;SDS011;7202;50.718;7.072;2023-02-18T10:07:42;7.47;;;1.42;;
14235;SDS011;7202;50.718;7.072;2023-02-18T10:10:15;5.47;;;1.25;;
14235;SDS011;7202;50.718;7.072;2023-02-18T10:12:48;4.78;;;1.40;;
14235;SDS011;7202;50.718;7.072;2023-02-18T10:15:19;2.33;;;1.00;;
14235;SDS011;7202;50.718;7.072;2023-02-18T10:17:50;2.28;;;1.17;;
14235;SDS011;7202;50.718;7.072;2023-02-18T10:20:21;4.63;;;1.20;;
14235;SDS011;7202;50.718;7.072;2023-02-18T10:22:53;3.67;;;0.90;;
14235;SDS011;7202;50.718;7.072;2023-02-18T10:25:24;2.38;;;1.08;;
14235;SDS011;7202;50.718;7.072;2023-02-18T10:27:53;3.83;;;1.30;;
14235;SDS011;7202;50.718;7.072;2023-02-18T10:30:22;2.10;;;0.93;;
14235;SDS011;7202;50.718;7.072;2023-02-18T10:32:59;2.30;;;0.93;;
14235;SDS011;7202;50.718;7.072;2023-02-18T10:35:38;2.92;;;1.00;;
14235;SDS011;7202;50.718;7.072;2023-02-18T10:38:12;3.22;;;1.20;;
14235;SDS011;7202;50.718;7.072;2023-02-18T10:40:52;3.17;;;1.00;;
14235;SDS011;7202;50.718;7.072;2023-02-18T10:43:28;3.47;;;1.35;;
14235;SDS011;7202;50.718;7.072;2023-02-18T10:46:07;2.72;;;1.00;;
14235;SDS011;7202;50.718;7.072;2023-02-18T10:48:46;3.05;;;0.90;;
14235;SDS011;7202;50.718;7.072;2023-02-18T10:51:27;1.75;;;1.17;;
14235;SDS011;7202;50.718;7.072;2023-02-18T10:53:58;3.38;;;1.35;;
14235;SDS011;7202;50.718;7.072;2023-02-18T10:56:32;1.38;;;0.90;;
14235;SDS011;7202;50.718;7.072;2023-02-18T10:59:09;3.42;;;1.33;;
14235;SDS011;7202;50.718;7.072;2023-02-18T11:01:39;3.38;;;1.20;;
14235;SDS011;7202;50.718;7.072;2023-02-18T11:04:14;6.00;;;1.30;;
14235;SDS011;7202;50.718;7.072;2023-02-18T11:06:47;4.50;;;1.30;;
14235;SDS011;7202;50.718;7.072;2023-02-18T11:09:28;3.03;;;1.25;;
14235;SDS011;7202;50.718;7.072;2023-02-18T11:12:04;2.00;;;1.02;;
14235;SDS011;7202;50.718;7.072;2023-02-18T11:14:43;2.03;;;0.90;;
14235;SDS011;7202;50.718;7.072;2023-02-18T11:17:17;1.45;;;0.63;;
14235;SDS011;7202;50.718;7.072;2023-02-18T11:19:54;2.20;;;0.80;;
14235;SDS011;7202;50.718;7.072;2023-02-18T11:22:27;2.20;;;0.82;;
14235;SDS011;7202;50.718;7.072;2023-02-18T11:24:59;3.35;;;0.85;;
14235;SDS011;7202;50.718;7.072;2023-02-18T11:27:30;1.77;;;0.60;;
14235;SDS011;7202;50.718;7.072;2023-02-18T11:30:05;2.78;;;0.90;;
14235;SDS011;7202;50.718;7.072;2023-02-18T11:32:44;1.48;;;0.93;;
14235;SDS011;7202;50.718;7.072;2023-02-18T11:35:16;1.55;;;0.73;;
14235;SDS011;7202;50.718;7.072;2023-02-18T11:37:48;2.17;;;0.88;;
14235;SDS011;7202;50.718;7.072;2023-02-18T11:40:21;2.15;;;0.82;;
14235;SDS011;7202;50.718;7.072;2023-02-18T11:42:53;0.88;;;0.63;;
14235;SDS011;7202;50.718;7.072;2023-02-18T11:45:31;3.28;;;0.90;;
14235;SDS011;7202;50.718;7.072;2023-02-18T11:48:05;1.48;;;0.47;;
14235;SDS011;7202;50.718;7.072;2023-02-18T11:50:36;2.08;;;0.82;;
14235;SDS011;7202;50.718;7.072;2023-02-18T11:53:23;1.23;;;0.70;;
14235;SDS011;7202;50.718;7.072;2023-02-18T11:55:55;1.02;;;0.65;;
14235;SDS011;7202;50.718;7.072;2023-02-18T11:58:25;4.15;;;0.90;;
14235;SDS011;7202;50.718;7.072;2023-02-18T12:00:56;1.40;;;0.65;;
14235;SDS011;7202;50.718;7.072;2023-02-18T12:03:29;3.22;;;0.93;;
14235;SDS011;7202;50.718;7.072;2023-02-18T12:06:02;3.75;;;0.90;;
14235;SDS011;7202;50.718;7.072;2023-02-18T12:08:44;2.00;;;0.90;;
14235;SDS011;7202;50.718;7.072;2023-02-18T12:11:19;2.15;;;0.73;;
14235;SDS011;7202;50.718;7.072;2023-02-18T12:13:52;2.20;;;0.70;;
14235;SDS011;7202;50.718;7.072;2023-02-18T12:16:25;1.42;;;0.95;;
14235;SDS011;7202;50.718;7.072;2023-02-18T12:19:03;2.33;;;0.93;;
14235;SDS011;7202;50.718;7.072;2023-02-18T12:21:47;3.30;;;0.75;;
14235;SDS011;7202;50.718;7.072;2023-02-18T12:24:30;2.03;;;1.30;;
14235;SDS011;7202;50.718;7.072;2023-02-18T12:27:11;1.50;;;1.00;;
14235;SDS011;7202;50.718;7.072;2023-02-18T12:29:51;2.90;;;0.80;;
14235;SDS011;7202;50.718;7.072;2023-02-18T12:32:40;2.05;;;0.90;;
14235;SDS011;7202;50.718;7.072;2023-02-18T12:35:28;2.22;;;1.00;;
14235;SDS011;7202;50.718;7.072;2023-02-18T12:38:09;1.77;;;0.80;;
14235;SDS011;7202;50.718;7.072;2023-02-18T12:40:58;3.63;;;0.70;;
14235;SDS011;7202;50.718;7.072;2023-02-18T12:43:37;1.75;;;0.95;;
14235;SDS011;7202;50.718;7.072;2023-02-18T12:46:21;2.90;;;0.70;;
14235;SDS011;7202;50.718;7.072;2023-02-18T12:49:04;1.60;;;0.75;;
14235;SDS011;7202;50.718;7.072;2023-02-18T12:51:44;1.55;;;0.60;;
14235;SDS011;7202;50.718;7.072;2023-02-18T12:54:28;0.50;;;0.50;;
14235;SDS011;7202;50.718;7.072;2023-02-18T12:57:12;0.90;;;0.52;;
14235;SDS011;7202;50.718;7.072;2023-02-18T13:00:07;0.82;;;0.60;;
14235;SDS011;7202;50.718;7.072;2023-02-18T13:03:03;2.65;;;0.63;;
14235;SDS011;7202;50.718;7.072;2023-02-18T13:05:46;1.13;;;0.50;;
14235;SDS011;7202;50.718;7.072;2023-02-18T13:08:27;1.25;;;0.52;;
14235;SDS011;7202;50.718;7.072;2023-02-18T13:11:09;0.68;;;0.45;;
14235;SDS011;7202;50.718;7.072;2023-02-18T13:13:48;0.90;;;0.40;;
14235;SDS011;7202;50.718;7.072;2023-02-18T13:16:22;0.70;;;0.40;;
14235;SDS011;7202;50.718;7.072;2023-02-18T13:18:55;1.35;;;0.70;;
14235;SDS011;7202;50.718;7.072;2023-02-18T13:21:28;1.40;;;0.60;;
14235;SDS011;7202;50.718;7.072;2023-02-18T13:23:59;1.30;;;0.50;;
14235;SDS011;7202;50.718;7.072;2023-02-18T13:26:30;1.27;;;0.50;;
14235;SDS011;7202;50.718;7.072;2023-02-18T13:29:11;2.72;;;0.70;;
14235;SDS011;7202;50.718;7.072;2023-02-18T13:31:51;0.95;;;0.60;;
14235;SDS011;7202;50.718;7.072;2023-02-18T13:34:30;0.65;;;0.45;;
14235;SDS011;7202;50.718;7.072;2023-02-18T13:37:05;0.63;;;0.50;;
14235;SDS011;7202;50.718;7.072;2023-02-18T13:39:44;0.70;;;0.50;;
14235;SDS011;7202;50.718;7.072;2023-02-18T13:47:55;3.20;;;0.50;;
14235;SDS011;7202;50.718;7.072;2023-02-18T13:50:26;0.80;;;0.50;;
14235;SDS011;7202;50.718;7.072;2023-02-18T13:53:01;0.52;;;0.43;;
14235;SDS011;7202;50.718;7.072;2023-02-18T13:55:45;0.60;;;0.60;;
14235;SDS011;7202;50.718;7.072;2023-02-18T13:58:20;1.10;;;0.70;;
14235;SDS011;7202;50.718;7.072;2023-02-18T14:00:54;0.45;;;0.30;;
14235;SDS011;7202;50.718;7.072;2023-02-18T14:03:31;1.30;;;0.45;;
14235;SDS011;7202;50.718;7.072;2023-02-18T14:06:14;0.73;;;0.45;;
14235;SDS011;7202;50.718;7.072;2023-02-18T14:08:43;0.43;;;0.40;;
14235;SDS011;7202;50.718;7.072;2023-02-18T14:11:23;1.02;;;0.45;;
14235;SDS011;7202;50.718;7.072;2023-02-18T14:26:16;0.40;;;0.40;;
14235;SDS011;7202;50.718;7.072;2023-02-18T14:28:51;1.00;;;0.50;;
14235;SDS011;7202;50.718;7.072;2023-02-18T14:31:26;0.85;;;0.70;;
14235;SDS011;7202;50.718;7.072;2023-02-18T14:34:26;1.25;;;0.88;;
14235;SDS011;7202;50.718;7.072;2023-02-18T14:37:08;0.30;;;0.30;;
14235;SDS011;7202;50.718;7.072;2023-02-18T14:39:52;0.55;;;0.30;;
14235;SDS011;7202;50.718;7.072;2023-02-18T14:42:29;0.38;;;0.20;;
14235;SDS011;7202;50.718;7.072;2023-02-18T14:45:11;0.50;;;0.40;;
14235;SDS011;7202;50.718;7.072;2023-02-18T14:47:54;0.35;;;0.35;;
14235;SDS011;7202;50.718;7.072;2023-02-18T14:50:42;1.75;;;0.40;;
14235;SDS011;7202;50.718;7.072;2023-02-18T14:53:16;0.30;;;0.30;;
14235;SDS011;7202;50.718;7.072;2023-02-18T14:55:49;1.55;;;0.50;;
14235;SDS011;7202;50.718;7.072;2023-02-18T14:58:25;0.22;;;0.22;;
14235;SDS011;7202;50.718;7.072;2023-02-18T15:00:57;1.23;;;0.30;;
14235;SDS011;7202;50.718;7.072;2023-02-18T15:03:32;1.15;;;0.35;;
14235;SDS011;7202;50.718;7.072;2023-02-18T15:06:02;0.43;;;0.30;;
14235;SDS011;7202;50.718;7.072;2023-02-18T15:08:35;1.23;;;0.40;;
14235;SDS011;7202;50.718;7.072;2023-02-18T15:11:05;0.77;;;0.30;;
14235;SDS011;7202;50.718;7.072;2023-02-18T15:13:36;0.60;;;0.43;;
14235;SDS011;7202;50.718;7.072;2023-02-18T15:16:11;0.93;;;0.40;;
14235;SDS011;7202;50.718;7.072;2023-02-18T15:18:47;1.42;;;0.40;;
14235;SDS011;7202;50.718;7.072;2023-02-18T15:21:20;0.50;;;0.40;;
14235;SDS011;7202;50.718;7.072;2023-02-18T15:23:54;0.52;;;0.43;;
14235;SDS011;7202;50.718;7.072;2023-02-18T15:26:31;0.30;;;0.30;;
14235;SDS011;7202;50.718;7.072;2023-02-18T15:29:02;1.02;;;0.43;;
14235;SDS011;7202;50.718;7.072;2023-02-18T15:31:34;0.55;;;0.30;;
14235;SDS011;7202;50.718;7.072;2023-02-18T15:34:28;1.00;;;0.28;;
14235;SDS011;7202;50.718;7.072;2023-02-18T15:37:01;0.90;;;0.55;;
14235;SDS011;7202;50.718;7.072;2023-02-18T15:39:31;0.40;;;0.40;;
14235;SDS011;7202;50.718;7.072;2023-02-18T15:42:04;0.60;;;0.50;;
14235;SDS011;7202;50.718;7.072;2023-02-18T15:44:36;0.75;;;0.47;;
14235;SDS011;7202;50.718;7.072;2023-02-18T15:47:05;0.68;;;0.60;;
14235;SDS011;7202;50.718;7.072;2023-02-18T15:49:36;0.63;;;0.50;;
14235;SDS011;7202;50.718;7.072;2023-02-18T15:52:26;0.55;;;0.40;;
14235;SDS011;7202;50.718;7.072;2023-02-18T15:54:59;2.25;;;0.50;;
14235;SDS011;7202;50.718;7.072;2023-02-18T15:57:31;1.13;;;0.43;;
14235;SDS011;7202;50.718;7.072;2023-02-18T16:00:04;0.80;;;0.38;;
14235;SDS011;7202;50.718;7.072;2023-02-18T16:02:48;0.40;;;0.30;;